Time;durP1;ratioP1;P1;durP2;ratioP2;P2;SDS_P1;SDS_P2;PMS_P1;PMS_P2;Temp;Humidity;BMP_temperature;BMP_pressure;BME280_temperature;BME280_humidity;BME280_pressure;Samples;Min_cycle;Max_cycle;Signal;HPM_P1;HPM_P2
2023/03/28 00:00:05;;;;;;;;;;;;;;;15.71;54.48;98994.75;4998312;28;1906;-52
2023/03/28 00:02:37;;;;;;;;;;;;;;;15.56;54.38;98998.69;4998035;28;1041;-47
2023/03/28 00:05:03;;;;;;;;;;;;;;;16.72;52.99;98995.16;4998439;28;1148;-48
2023/03/28 00:07:29;;;;;;;;;;;;;;;16.81;52.57;98986.16;4997923;28;1123;-50
2023/03/28 00:09:56;;;;;;;;;;;;;;;16.08;54.20;98988.09;4998285;28;1181;-51
2023/03/28 00:12:22;;;;;;;;;;;;;;;15.80;54.40;98992.91;4997789;28;1069;-46
2023/03/28 00:14:47;;;;;;;;;;;;;;;15.59;54.43;98992.56;4998441;28;1192;-50
2023/03/28 00:17:17;;;;;;;;;;;;;;;15.50;54.48;99000.72;4998573;28;1076;-49
2023/03/28 00:19:45;;;;;;;;;;;;;;;15.35;54.62;99007.34;4997756;28;1942;-49
2023/03/28 00:22:11;;;;;;;;;;;;;;;16.20;54.02;99014.94;4997873;28;1119;-47
2023/03/28 00:24:37;;;;;;;;;;;;;;;17.20;51.71;99003.72;4998186;28;1192;-47
2023/03/28 00:27:04;;;;;;;;;;;;;;;16.20;53.92;99014.13;4997944;28;876;-50
2023/03/28 00:29:30;;;;;;;;;;;;;;;15.82;54.56;99022.75;4997318;28;1130;-51
2023/03/28 00:31:56;;;;;;;;;;;;;;;15.60;54.54;99018.84;4998426;28;1084;-49
2023/03/28 00:34:21;;;;;;;;;;;;;;;15.46;54.76;99038.06;4997814;28;1073;-49
2023/03/28 00:36:47;;;;;;;;;;;;;;;15.97;54.54;99058.00;4997833;28;1116;-52
2023/03/28 00:39:13;;;;;;;;;;;;;;;17.07;51.97;99055.72;4997516;28;1155;-51
2023/03/28 00:41:40;;;;;;;;;;;;;;;16.11;54.06;99066.19;4996036;28;1906;-50
2023/03/28 00:44:24;;;;;;;;;;;;;;;15.79;54.54;99072.69;4997701;28;1085;-49
2023/03/28 00:46:50;;;;;;;;;;;;;;;15.57;54.32;99080.56;4998116;28;1068;-51
2023/03/28 00:49:20;;;;;;;;;;;;;;;16.69;52.82;99080.06;4996382;28;1195;-51
2023/03/28 00:51:47;;;;;;;;;;;;;;;16.68;52.53;99090.25;4996150;28;1218;-51
2023/03/28 00:54:14;;;;;;;;;;;;;;;16.00;53.91;99082.06;5025085;28;1180;-51
2023/03/28 00:56:40;;;;;;;;;;;;;;;15.76;54.13;99085.06;4987667;28;1511;-48
2023/03/28 00:59:07;;;;;;;;;;;;;;;15.55;54.32;99095.69;4997299;28;1116;-50
2023/03/28 01:01:33;;;;;;;;;;;;;;;15.49;54.49;99094.19;5028876;28;1906;-49
2023/03/28 01:04:02;;;;;;;;;;;;;;;16.95;52.31;99091.19;4995821;28;1123;-50
2023/03/28 01:06:31;;;;;;;;;;;;;;;16.52;52.92;99094.50;4996049;28;1343;-48
2023/03/28 01:08:58;;;;;;;;;;;;;;;15.96;54.00;99102.19;4995770;28;1270;-51
2023/03/28 01:11:23;;;;;;;;;;;;;;;15.70;54.35;99098.06;4979735;28;1303;-50
2023/03/28 01:13:49;;;;;;;;;;;;;;;15.55;54.15;99098.41;4995856;28;1332;-51
2023/03/28 01:16:16;;;;;;;;;;;;;;;16.03;54.06;99111.63;4999622;28;1210;-49
2023/03/28 01:18:45;;;;;;;;;;;;;;;17.24;51.26;99103.59;4966390;28;1165;-48
2023/03/28 01:21:15;;;;;;;;;;;;;;;16.24;53.48;99100.97;4979769;28;1910;-50
2023/03/28 01:23:52;;;;;;;;;;;;;;;15.86;54.07;99104.03;4995923;28;1033;-48
2023/03/28 01:26:36;;;;;;;;;;;;;;;15.68;53.98;99111.28;4995630;28;1324;-49
2023/03/28 01:29:06;;;;;;;;;;;;;;;15.45;54.31;99107.66;4995522;28;1026;-50
2023/03/28 01:31:35;;;;;;;;;;;;;;;15.34;54.46;99118.00;4995212;28;1339;-51
2023/03/28 01:34:27;;;;;;;;;;;;;;;16.58;52.98;99126.19;4997058;28;1088;-49
2023/03/28 01:36:53;;;;;;;;;;;;;;;16.52;52.61;99124.69;4996663;28;1188;-49
2023/03/28 01:39:32;;;;;;;;;;;;;;;15.88;54.07;99133.91;4994972;28;1759;-47
2023/03/28 01:42:08;;;;;;;;;;;;;;;15.60;54.16;99133.09;5011500;28;1971;-49
2023/03/28 01:44:36;;;;;;;;;;;;;;;15.48;54.60;99128.16;4995486;28;1382;-50
2023/03/28 01:47:15;;;;;;;;;;;;;;;16.38;53.40;99128.34;4995600;28;1091;-50
2023/03/28 01:49:45;;;;;;;;;;;;;;;16.97;51.61;99121.91;4966834;28;1147;-48
2023/03/28 01:52:13;;;;;;;;;;;;;;;16.10;53.63;99121.34;4998167;28;1114;-46
2023/03/28 01:54:42;;;;;;;;;;;;;;;15.79;53.89;99133.81;4997066;28;1156;-48
2023/03/28 01:57:17;;;;;;;;;;;;;;;15.58;54.17;99136.16;4995191;28;1341;-48
2023/03/28 02:00:05;;;;;;;;;;;;;;;16.57;52.79;99141.81;4995484;28;1118;-48
2023/03/28 02:02:35;;;;;;;;;;;;;;;16.58;52.25;99146.19;4996160;28;1212;-50
2023/03/28 02:05:19;;;;;;;;;;;;;;;15.90;53.95;99156.31;5008636;28;1843;-50
2023/03/28 02:07:45;;;;;;;;;;;;;;;15.71;54.27;99156.41;4984879;28;1246;-50
2023/03/28 02:10:12;;;;;;;;;;;;;;;15.52;54.35;99151.09;5028158;28;1223;-48
2023/03/28 02:12:59;;;;;;;;;;;;;;;15.78;54.15;99170.53;5009446;28;1329;-51
2023/03/28 02:15:45;;;;;;;;;;;;;;;17.20;51.03;99165.78;4996742;28;1197;-49
2023/03/28 02:18:22;;;;;;;;;;;;;;;16.20;53.04;99175.91;4995082;28;1128;-46
2023/03/28 02:21:18;;;;;;;;;;;;;;;15.75;53.94;99190.31;4996123;28;1977;-49
2023/03/28 02:24:02;;;;;;;;;;;;;;;15.59;53.97;99205.47;5012470;28;1041;-51
2023/03/28 02:26:51;;;;;;;;;;;;;;;15.44;54.39;99206.59;5002022;28;1431;-47
2023/03/28 02:29:37;;;;;;;;;;;;;;;17.00;51.37;99214.63;4996418;28;985;-48
2023/03/28 02:32:13;;;;;;;;;;;;;;;16.47;52.40;99212.63;4995386;28;1159;-49
2023/03/28 02:34:39;;;;;;;;;;;;;;;15.89;53.84;99210.34;4994831;28;1139;-50
2023/03/28 02:37:13;;;;;;;;;;;;;;;15.69;53.78;99211.53;4995345;28;1164;-50
2023/03/28 02:39:45;;;;;;;;;;;;;;;15.50;53.94;99219.06;4978653;28;1308;-50
2023/03/28 02:42:27;;;;;;;;;;;;;;;15.33;54.04;99239.66;5028703;28;1993;-49
2023/03/28 02:45:16;;;;;;;;;;;;;;;16.84;51.89;99241.63;4999708;28;1061;-50
2023/03/28 02:47:41;;;;;;;;;;;;;;;16.50;52.32;99240.25;4999890;28;1127;-50
2023/03/28 02:50:07;;;;;;;;;;;;;;;15.94;53.35;99250.53;4998283;28;1132;-49
2023/03/28 02:52:50;;;;;;;;;;;;;;;15.69;53.97;99265.53;4998122;28;1858;-49
2023/03/28 02:55:20;;;;;;;;;;;;;;;15.52;53.77;99266.16;4998526;28;1076;-47
2023/03/28 02:58:25;;;;;;;;;;;;;;;16.91;51.42;99275.00;4991010;28;1195;-49
2023/03/28 03:00:50;;;;;;;;;;;;;;;16.52;51.95;99279.16;4999576;28;1906;-51
2023/03/28 03:03:16;;;;;;;;;;;;;;;16.01;53.32;99288.50;5030873;28;1168;-51
2023/03/28 03:05:41;;;;;;;;;;;;;;;15.71;53.54;99288.78;4998193;28;1018;-51
2023/03/28 03:08:07;;;;;;;;;;;;;;;15.57;53.66;99301.66;4999712;28;1111;-47
2023/03/28 03:10:34;;;;;;;;;;;;;;;16.56;52.20;99304.88;4997854;28;1495;-50
2023/03/28 03:12:59;;;;;;;;;;;;;;;17.22;50.24;99298.94;4999623;28;1020;-50
2023/03/28 03:15:29;;;;;;;;;;;;;;;16.26;52.36;99317.31;4998050;28;1368;-50
2023/03/28 03:17:57;;;;;;;;;;;;;;;15.91;53.09;99317.75;4998135;28;1136;-50
2023/03/28 03:20:32;;;;;;;;;;;;;;;15.73;53.39;99321.38;5018390;28;1909;-50
2023/03/28 03:22:59;;;;;;;;;;;;;;;15.55;53.54;99320.31;4998002;28;1158;-51
2023/03/28 03:25:25;;;;;;;;;;;;;;;16.98;50.97;99312.16;5030099;28;1815;-50
2023/03/28 03:27:59;;;;;;;;;;;;;;;16.79;51.07;99313.13;4997827;28;1129;-50
2023/03/28 03:30:25;;;;;;;;;;;;;;;16.13;52.63;99321.72;4997891;28;1333;-50
2023/03/28 03:33:09;;;;;;;;;;;;;;;15.85;52.93;99301.69;4998807;28;1041;-53
2023/03/28 03:35:35;;;;;;;;;;;;;;;15.59;53.50;99310.38;4997221;28;1048;-46
2023/03/28 03:38:04;;;;;;;;;;;;;;;15.49;53.41;99327.03;4997932;28;1367;-46
2023/03/28 03:40:29;;;;;;;;;;;;;;;16.95;50.74;99304.56;4997133;28;1981;-51
2023/03/28 03:42:56;;;;;;;;;;;;;;;16.89;50.57;99339.56;4997712;28;1182;-51
2023/03/28 03:45:21;;;;;;;;;;;;;;;16.18;52.33;99296.09;4998853;28;1124;-47
2023/03/28 03:47:47;;;;;;;;;;;;;;;15.85;52.93;99307.19;4997032;28;1120;-51
2023/03/28 03:50:12;;;;;;;;;;;;;;;15.62;53.13;99308.97;4997542;28;1522;-53
2023/03/28 03:52:40;;;;;;;;;;;;;;;15.45;53.45;99309.56;4996835;28;1212;-51
2023/03/28 03:55:06;;;;;;;;;;;;;;;16.66;51.52;99303.81;4997417;28;1461;-50
2023/03/28 03:57:36;;;;;;;;;;;;;;;16.75;50.87;99299.19;5029603;28;1223;-48
2023/03/28 04:00:12;;;;;;;;;;;;;;;16.07;52.34;99309.22;4997137;28;1910;-53
2023/03/28 04:02:48;;;;;;;;;;;;;;;15.68;52.91;99292.13;4998357;28;1005;-53
2023/03/28 04:05:20;;;;;;;;;;;;;;;15.50;53.31;99282.88;4996814;28;1206;-44
2023/03/28 04:08:06;;;;;;;;;;;;;;;15.39;53.11;99295.16;4997917;28;1227;-57
2023/03/28 04:10:37;;;;;;;;;;;;;;;16.88;50.36;99299.47;4997203;28;1151;-52
2023/03/28 04:13:03;;;;;;;;;;;;;;;16.96;50.01;99290.50;4997297;28;1235;-54
2023/03/28 04:15:31;;;;;;;;;;;;;;;16.13;51.93;99307.16;5030047;28;1171;-50
2023/03/28 04:18:22;;;;;;;;;;;;;;;15.76;52.71;99309.00;4976818;28;1255;-55
2023/03/28 04:20:53;;;;;;;;;;;;;;;15.56;52.79;99320.03;4978913;28;1914;-52
2023/03/28 04:23:55;;;;;;;;;;;;;;;16.23;51.78;99331.66;4979477;28;1425;-54
2023/03/28 04:26:36;;;;;;;;;;;;;;;17.04;49.34;99333.72;4996615;28;1266;-51
2023/03/28 04:29:09;;;;;;;;;;;;;;;16.16;51.63;99320.25;4996141;28;1238;-50
2023/03/28 04:31:38;;;;;;;;;;;;;;;15.77;52.54;99327.03;4996505;28;1284;-50
2023/03/28 04:34:28;;;;;;;;;;;;;;;15.54;52.45;99335.13;4996327;28;1009;-54
2023/03/28 04:37:05;;;;;;;;;;;;;;;16.64;50.46;99335.44;4986959;28;1147;-48
2023/03/28 04:39:40;;;;;;;;;;;;;;;17.38;48.14;99343.28;4996378;28;1160;-51
2023/03/28 04:42:24;;;;;;;;;;;;;;;16.24;50.89;99344.22;4991498;28;923;-52
2023/03/28 04:45:09;;;;;;;;;;;;;;;15.85;51.71;99334.59;4996841;28;1175;-54
2023/03/28 04:47:38;;;;;;;;;;;;;;;15.68;52.18;99351.59;4983819;28;1417;-48
2023/03/28 04:50:08;;;;;;;;;;;;;;;15.50;52.28;99358.75;4996296;28;1139;-45
2023/03/28 04:52:35;;;;;;;;;;;;;;;16.02;51.46;99369.63;5028641;28;1365;-46
2023/03/28 04:55:02;;;;;;;;;;;;;;;17.23;48.36;99362.91;4997739;28;1152;-47
2023/03/28 04:57:27;;;;;;;;;;;;;;;16.25;50.48;99360.38;5029368;28;1368;-47
2023/03/28 04:59:58;;;;;;;;;;;;;;;15.85;51.78;99379.28;4995954;28;1967;-46
2023/03/28 05:02:44;;;;;;;;;;;;;;;15.60;52.31;99361.34;4976550;28;1236;-51
2023/03/28 05:05:12;;;;;;;;;;;;;;;15.44;52.37;99357.25;4995179;28;1404;-48
2023/03/28 05:07:37;;;;;;;;;;;;;;;15.94;51.51;99353.91;4997756;28;1165;-50
2023/03/28 05:10:05;;;;;;;;;;;;;;;17.32;48.67;99362.97;4995355;28;1931;-55
2023/03/28 05:12:37;;;;;;;;;;;;;;;16.32;50.44;99354.47;5028873;28;1410;-50
2023/03/28 05:15:04;;;;;;;;;;;;;;;15.86;50.56;99366.38;4996019;28;1148;-54
2023/03/28 05:17:31;;;;;;;;;;;;;;;17.10;49.26;99350.88;5028198;28;1271;-51
2023/03/28 05:20:15;;;;;;;;;;;;;;;15.98;50.08;99363.16;4995255;28;1957;-52
2023/03/28 05:22:48;;;;;;;;;;;;;;;16.17;50.29;99363.03;5028864;28;1158;-50
2023/03/28 05:25:13;;;;;;;;;;;;;;;16.69;49.95;99343.53;4996871;28;1060;-51
2023/03/28 05:27:39;;;;;;;;;;;;;;;16.83;50.23;99355.31;5011832;28;1262;-52
2023/03/28 05:30:05;;;;;;;;;;;;;;;18.23;47.18;99352.59;4996534;28;1219;-50
2023/03/28 05:32:32;;;;;;;;;;;;;;;16.82;49.47;99353.69;4995353;28;1944;-46
2023/03/28 05:34:57;;;;;;;;;;;;;;;16.37;48.99;99372.78;4997141;28;1339;-51
2023/03/28 05:37:27;;;;;;;;;;;;;;;16.82;49.57;99394.88;4995649;28;1196;-49
2023/03/28 05:39:53;;;;;;;;;;;;;;;16.63;49.64;99408.72;4995233;28;1127;-46
2023/03/28 05:42:19;;;;;;;;;;;;;;;16.41;49.48;99410.28;4995128;28;1979;-47
2023/03/28 05:44:45;;;;;;;;;;;;;;;17.66;48.09;99425.59;4995413;28;1142;-45
2023/03/28 05:47:14;;;;;;;;;;;;;;;16.61;49.06;99400.00;4996498;28;1180;-48
2023/03/28 05:49:39;;;;;;;;;;;;;;;17.65;48.46;99414.91;4994952;28;1049;-50
2023/03/28 05:52:06;;;;;;;;;;;;;;;17.22;48.64;99405.22;4991609;28;1333;-49
2023/03/28 05:54:31;;;;;;;;;;;;;;;16.57;48.73;99416.25;4995472;28;1041;-49
2023/03/28 05:56:57;;;;;;;;;;;;;;;17.26;49.04;99400.75;5002137;28;1335;-50
2023/03/28 05:59:24;;;;;;;;;;;;;;;16.58;49.01;99428.84;4995033;28;1123;-51
2023/03/28 06:01:51;;;;;;;;;;;;;;;16.27;47.87;99403.97;4994358;28;1971;-54
2023/03/28 06:04:18;;;;;;;;;;;;;;;17.45;48.45;99406.88;5011288;28;1225;-53
2023/03/28 06:06:44;;;;;;;;;;;;;;;16.64;48.86;99420.53;4974807;28;1461;-52
2023/03/28 06:09:11;;;;;;;;;;;;;;;16.34;47.79;99418.09;4996327;28;1169;-54
2023/03/28 06:11:51;;;;;;;;;;;;;;;17.68;47.96;99425.28;4993692;28;1674;-56
2023/03/28 06:14:18;;;;;;;;;;;;;;;16.62;48.63;99440.03;4994705;28;1008;-53
2023/03/28 06:16:44;;;;;;;;;;;;;;;16.25;48.24;99445.41;4995911;28;1235;-53
2023/03/28 06:19:10;;;;;;;;;;;;;;;16.91;48.73;99453.47;5000320;28;1089;-57
2023/03/28 06:21:36;;;;;;;;;;;;;;;16.43;49.13;99470.31;4997248;28;1981;-49
2023/03/28 06:24:05;;;;;;;;;;;;;;;17.50;48.02;99479.31;4998825;28;1264;-53
2023/03/28 06:26:35;;;;;;;;;;;;;;;17.74;47.80;99476.25;5031610;28;1606;-55
2023/03/28 06:29:01;;;;;;;;;;;;;;;16.83;48.59;99473.38;4999000;28;1348;-54
2023/03/28 06:31:41;;;;;;;;;;;;;;;16.52;48.28;99495.13;5018068;28;1147;-58
2023/03/28 06:34:06;;;;;;;;;;;;;;;17.00;48.78;99500.22;4999981;28;944;-55
2023/03/28 06:36:34;;;;;;;;;;;;;;;16.54;48.35;99521.13;4998459;28;1501;-55
2023/03/28 06:39:00;;;;;;;;;;;;;;;16.72;48.28;99549.63;4998792;28;1215;-54
2023/03/28 06:41:27;;;;;;;;;;;;;;;17.03;48.46;99540.78;4998370;28;1973;-58
2023/03/28 06:43:53;;;;;;;;;;;;;;;16.90;48.99;99552.59;4998563;28;1215;-57
2023/03/28 06:46:37;;;;;;;;;;;;;;;18.54;45.89;99549.91;4999427;28;878;-58
2023/03/28 06:49:03;;;;;;;;;;;;;;;17.08;48.08;99537.94;4998702;28;1771;-60
2023/03/28 06:51:37;;;;;;;;;;;;;;;16.68;47.59;99559.56;4991428;28;1177;-59
2023/03/28 06:54:03;;;;;;;;;;;;;;;16.43;46.83;99553.44;4999601;28;1231;-58
2023/03/28 06:56:32;;;;;;;;;;;;;;;17.09;48.53;99575.25;4998350;28;1195;-60
2023/03/28 06:58:58;;;;;;;;;;;;;;;16.59;48.09;99578.69;4998440;28;1425;-58
2023/03/28 07:01:26;;;;;;;;;;;;;;;17.01;48.08;99566.94;4996728;28;1918;-54
2023/03/28 07:04:23;;;;;;;;;;;;;;;16.73;48.20;99583.34;4975034;28;1195;-58
2023/03/28 07:06:49;;;;;;;;;;;;;;;16.42;47.35;99579.25;4994399;28;1092;-60
2023/03/28 07:09:15;;;;;;;;;;;;;;;17.60;47.28;99578.03;4998268;28;1131;-57
2023/03/28 07:11:49;;;;;;;;;;;;;;;16.61;48.36;99594.84;5012480;28;1405;-56
2023/03/28 07:14:16;;;;;;;;;;;;;;;17.31;47.72;99595.69;4996383;28;1158;-56
2023/03/28 07:16:41;;;;;;;;;;;;;;;17.41;47.83;99608.41;4997756;28;1093;-58
2023/03/28 07:19:08;;;;;;;;;;;;;;;16.58;48.08;99604.50;4997154;28;1093;-58
2023/03/28 07:21:39;;;;;;;;;;;;;;;16.40;47.21;99608.91;4997726;28;1977;-58
2023/03/28 07:24:04;;;;;;;;;;;;;;;16.66;47.17;99616.72;4997984;28;1173;-58
2023/03/28 07:26:53;;;;;;;;;;;;;;;16.82;48.03;99616.44;4996523;28;1486;-56
2023/03/28 07:29:18;;;;;;;;;;;;;;;16.42;47.37;99614.94;4987295;28;1189;-54
2023/03/28 07:31:44;;;;;;;;;;;;;;;16.70;47.33;99611.41;5015977;28;1107;-59
2023/03/28 07:34:10;;;;;;;;;;;;;;;16.62;47.58;99634.91;4988115;28;1006;-58
2023/03/28 07:36:37;;;;;;;;;;;;;;;16.35;46.79;99625.47;4999095;28;1132;-58
2023/03/28 07:39:09;;;;;;;;;;;;;;;17.35;47.02;99642.59;4997575;28;1451;-58
2023/03/28 07:41:35;;;;;;;;;;;;;;;16.66;47.56;99649.66;4997534;28;1910;-59
2023/03/28 07:44:00;;;;;;;;;;;;;;;16.22;47.47;99640.75;4997833;28;1174;-60
2023/03/28 07:46:26;;;;;;;;;;;;;;;16.39;47.00;99662.16;4993881;28;1148;-59
2023/03/28 07:48:53;;;;;;;;;;;;;;;16.91;47.54;99656.66;4989264;28;1095;-55
2023/03/28 07:51:18;;;;;;;;;;;;;;;16.30;47.39;99661.22;4997568;28;1393;-55
2023/03/28 07:53:44;;;;;;;;;;;;;;;17.85;46.19;99670.13;5013714;28;1537;-57
2023/03/28 07:56:10;;;;;;;;;;;;;;;16.88;47.68;99678.34;4997312;28;1114;-56
2023/03/28 07:59:03;;;;;;;;;;;;;;;16.38;47.64;99685.25;4987159;28;1298;-54
2023/03/28 08:01:29;;;;;;;;;;;;;;;17.68;46.53;99695.50;4997222;28;1977;-56
2023/03/28 08:04:00;;;;;;;;;;;;;;;16.72;47.46;99686.88;4998615;28;1228;-57
2023/03/28 08:06:37;;;;;;;;;;;;;;;17.52;46.93;99699.72;4993873;28;1386;-56
2023/03/28 08:09:06;;;;;;;;;;;;;;;16.88;47.63;99700.31;5002353;28;1012;-56
2023/03/28 08:11:42;;;;;;;;;;;;;;;16.41;47.48;99697.53;4998435;28;1073;-57
2023/03/28 08:14:12;;;;;;;;;;;;;;;17.45;46.82;99691.88;4997285;28;1247;-56
2023/03/28 08:16:37;;;;;;;;;;;;;;;16.64;47.59;99708.69;4997077;28;1114;-59
2023/03/28 08:19:03;;;;;;;;;;;;;;;17.14;47.59;99705.38;4996721;28;894;-56
2023/03/28 08:21:30;;;;;;;;;;;;;;;16.97;47.36;99704.03;4996778;28;1983;-60
2023/03/28 08:23:56;;;;;;;;;;;;;;;16.56;47.06;99707.44;4996784;28;1107;-57
2023/03/28 08:26:31;;;;;;;;;;;;;;;16.29;46.40;99706.22;5029709;28;1224;-56
2023/03/28 08:28:57;;;;;;;;;;;;;;;17.01;47.04;99702.31;4996697;28;1212;-58
2023/03/28 08:31:25;;;;;;;;;;;;;;;16.60;47.72;99708.47;5013962;28;1321;-59
2023/03/28 08:33:54;;;;;;;;;;;;;;;18.38;45.16;99712.69;4983447;28;1225;-59
2023/03/28 08:36:24;;;;;;;;;;;;;;;17.14;47.33;99702.63;4996762;28;1303;-58
2023/03/28 08:38:52;;;;;;;;;;;;;;;16.67;47.12;99713.59;4996565;28;1296;-59
2023/03/28 08:41:23;;;;;;;;;;;;;;;16.71;47.39;99723.66;4995848;28;1898;-58
2023/03/28 08:44:19;;;;;;;;;;;;;;;17.20;47.41;99712.41;5002100;28;1344;-58
2023/03/28 08:46:45;;;;;;;;;;;;;;;16.70;46.75;99727.50;4996186;28;1037;-58
2023/03/28 08:49:15;;;;;;;;;;;;;;;17.03;47.30;99722.03;4976537;28;1142;-59
2023/03/28 08:51:51;;;;;;;;;;;;;;;16.98;47.56;99726.81;4988252;28;1165;-58
2023/03/28 08:54:35;;;;;;;;;;;;;;;16.56;46.94;99740.38;5012357;28;1180;-58
2023/03/28 08:57:02;;;;;;;;;;;;;;;17.26;46.88;99725.75;4995504;28;1080;-59
2023/03/28 08:59:28;;;;;;;;;;;;;;;16.58;47.26;99729.94;4991234;28;1280;-58
2023/03/28 09:01:54;;;;;;;;;;;;;;;17.95;45.84;99733.19;5012074;28;1902;-58
2023/03/28 09:04:34;;;;;;;;;;;;;;;17.40;46.88;99698.28;4997185;28;1291;-58
2023/03/28 09:07:11;;;;;;;;;;;;;;;16.76;47.19;99712.59;5015019;28;1345;-58
2023/03/28 09:09:41;;;;;;;;;;;;;;;16.52;46.72;99709.16;4987117;28;1033;-60
2023/03/28 09:12:49;;;;;;;;;;;;;;;16.91;47.61;99705.22;4987742;28;1082;-61
2023/03/28 09:15:44;;;;;;;;;;;;;;;16.47;46.91;99712.81;5007361;28;1256;-61
2023/03/28 09:18:10;;;;;;;;;;;;;;;16.88;47.06;99723.13;4976321;28;1222;-58
2023/03/28 09:21:12;;;;;;;;;;;;;;;16.84;47.17;99724.81;4995701;28;1906;-58
2023/03/28 09:24:02;;;;;;;;;;;;;;;16.43;46.50;99723.53;4978299;28;1322;-60
2023/03/28 09:26:47;;;;;;;;;;;;;;;16.16;46.06;99712.44;4994938;28;1108;-61
2023/03/28 09:29:17;;;;;;;;;;;;;;;16.40;46.27;99718.66;5011287;28;1163;-60
2023/03/28 09:31:47;;;;;;;;;;;;;;;16.72;47.23;99733.53;5022048;28;1178;-57
2023/03/28 09:34:22;;;;;;;;;;;;;;;16.22;46.94;99728.53;5012684;28;1239;-57
2023/03/28 09:36:49;;;;;;;;;;;;;;;16.28;47.12;99734.75;5008204;28;1171;-58
2023/03/28 09:39:29;;;;;;;;;;;;;;;17.41;46.38;99732.88;5012875;28;1355;-57
2023/03/28 09:42:05;;;;;;;;;;;;;;;16.48;47.40;99735.56;5008906;28;1913;-57
2023/03/28 09:44:44;;;;;;;;;;;;;;;16.22;46.72;99734.00;5008193;28;1051;-58
2023/03/28 09:47:28;;;;;;;;;;;;;;;16.83;47.13;99741.59;4989980;28;1659;-57
2023/03/28 09:50:00;;;;;;;;;;;;;;;16.78;47.22;99739.75;5028176;28;1163;-60
2023/03/28 09:52:25;;;;;;;;;;;;;;;18.39;44.78;99744.59;4995195;28;1466;-57
2023/03/28 09:54:51;;;;;;;;;;;;;;;17.04;47.35;99742.91;4978706;28;1214;-57
2023/03/28 09:57:18;;;;;;;;;;;;;;;16.56;47.30;99763.16;4979572;28;1367;-57
2023/03/28 09:59:44;;;;;;;;;;;;;;;16.46;46.52;99776.22;4996568;28;1131;-62
2023/03/28 10:02:31;;;;;;;;;;;;;;;16.18;46.40;99784.28;4994972;28;1939;-51
2023/03/28 10:05:00;;;;;;;;;;;;;;;17.04;46.80;99806.09;5016090;28;1560;-60
2023/03/28 10:07:41;;;;;;;;;;;;;;;16.64;47.52;99804.78;4995191;28;1192;-60
2023/03/28 10:10:30;;;;;;;;;;;;;;;16.14;47.12;99835.34;4996284;28;1733;-59
2023/03/28 10:13:10;;;;;;;;;;;;;;;16.18;46.90;99852.84;4995402;28;1358;-60
2023/03/28 10:15:39;;;;;;;;;;;;;;;17.38;46.28;99845.34;4995216;28;1357;-61
2023/03/28 10:18:25;;;;;;;;;;;;;;;16.41;47.24;99854.75;4993660;28;1105;-58
2023/03/28 10:21:17;;;;;;;;;;;;;;;16.18;46.60;99853.66;4993112;28;1985;-59
2023/03/28 10:23:49;;;;;;;;;;;;;;;16.47;46.84;99865.66;4979363;28;2098;-59
2023/03/28 10:26:16;;;;;;;;;;;;;;;16.53;47.27;99867.22;4997508;28;1328;-58
2023/03/28 10:28:42;;;;;;;;;;;;;;;16.34;47.32;99864.44;5000497;28;1218;-57
2023/03/28 10:31:08;;;;;;;;;;;;;;;17.82;45.78;99876.16;4995632;28;1163;-58
2023/03/28 10:33:35;;;;;;;;;;;;;;;16.71;47.09;99880.13;4978045;28;1120;-58
2023/03/28 10:36:28;;;;;;;;;;;;;;;16.37;46.55;99883.06;4982351;28;1215;-58
2023/03/28 10:38:55;;;;;;;;;;;;;;;17.17;47.26;99888.84;4990064;28;1236;-58
2023/03/28 10:41:21;;;;;;;;;;;;;;;16.50;47.61;99898.00;4995697;28;1906;-57
2023/03/28 10:44:15;;;;;;;;;;;;;;;16.24;46.70;99901.03;4990050;28;1205;-58
2023/03/28 10:46:46;;;;;;;;;;;;;;;17.14;46.89;99908.66;4996861;28;1205;-57
2023/03/28 10:49:22;;;;;;;;;;;;;;;16.47;47.41;99920.53;5010701;28;1161;-63
2023/03/28 10:51:56;;;;;;;;;;;;;;;18.08;45.60;99913.09;4995141;28;1196;-61
2023/03/28 10:54:30;;;;;;;;;;;;;;;17.64;46.59;99917.16;5011111;28;1146;-62
2023/03/28 10:56:59;;;;;;;;;;;;;;;16.83;47.24;99928.28;5010601;28;1112;-60
2023/03/28 10:59:39;;;;;;;;;;;;;;;16.90;47.63;99939.75;4994827;28;1366;-61
2023/03/28 11:02:24;;;;;;;;;;;;;;;17.16;47.18;99931.16;4986232;28;1910;-62
2023/03/28 11:04:50;;;;;;;;;;;;;;;16.51;47.44;99943.50;4989169;28;1154;-59
2023/03/28 11:07:19;;;;;;;;;;;;;;;17.78;46.04;99948.28;5030747;28;1427;-57
2023/03/28 11:10:13;;;;;;;;;;;;;;;16.76;47.05;99939.66;5009760;28;1424;-58
2023/03/28 11:13:25;;;;;;;;;;;;;;;18.54;45.20;99944.41;4983181;28;1228;-59
2023/03/28 11:15:53;;;;;;;;;;;;;;;17.16;47.39;99942.16;5008032;28;1483;-58
2023/03/28 11:18:29;;;;;;;;;;;;;;;16.79;46.79;99938.22;4983654;28;1360;-62
2023/03/28 11:21:07;;;;;;;;;;;;;;;16.61;46.14;99935.19;4997403;28;1907;-62
2023/03/28 11:23:52;;;;;;;;;;;;;;;16.42;45.70;99929.63;5014048;28;1141;-64
2023/03/28 11:27:05;;;;;;;;;;;;;;;17.20;47.26;99937.69;4982462;28;1354;-62
2023/03/28 11:30:18;;;;;;;;;;;;;;;16.65;46.83;99921.66;4987467;28;978;-61
2023/03/28 11:33:12;;;;;;;;;;;;;;;17.74;46.25;99932.66;4993492;28;1634;-61
2023/03/28 11:35:38;;;;;;;;;;;;;;;16.68;47.42;99934.81;5016576;28;1308;-56
2023/03/28 11:38:07;;;;;;;;;;;;;;;16.38;46.81;99940.41;4997823;28;1144;-59
2023/03/28 11:40:43;;;;;;;;;;;;;;;17.06;46.91;99937.63;4997581;28;1902;-57
2023/03/28 11:43:12;;;;;;;;;;;;;;;16.50;46.84;99941.91;4996407;28;1673;-59
2023/03/28 11:45:41;;;;;;;;;;;;;;;17.06;47.15;99932.13;5011541;28;1446;-60
2023/03/28 11:48:21;;;;;;;;;;;;;;;16.67;47.14;99941.41;4981134;28;1429;-60
2023/03/28 11:51:06;;;;;;;;;;;;;;;16.53;46.37;99936.63;4997713;28;1182;-62
2023/03/28 11:53:49;;;;;;;;;;;;;;;17.34;46.41;99948.75;5023639;28;1034;-60
2023/03/28 11:56:22;;;;;;;;;;;;;;;16.61;47.29;99937.91;4997070;28;1178;-59
2023/03/28 11:59:21;;;;;;;;;;;;;;;16.69;47.09;99955.66;4986955;28;1299;-60
2023/03/28 12:01:48;;;;;;;;;;;;;;;17.08;47.01;99957.34;5018424;28;1955;-59
2023/03/28 12:04:21;;;;;;;;;;;;;;;16.50;47.18;99956.44;4989941;28;1224;-56
2023/03/28 12:06:52;;;;;;;;;;;;;;;18.08;45.50;99961.81;4993982;28;1355;-60
2023/03/28 12:09:32;;;;;;;;;;;;;;;16.89;47.06;99957.34;5011844;28;1157;-60
2023/03/28 12:12:12;;;;;;;;;;;;;;;16.53;46.81;99968.75;4987918;28;1160;-60
2023/03/28 12:14:47;;;;;;;;;;;;;;;17.86;46.09;99970.69;4983679;28;1306;-60
2023/03/28 12:17:27;;;;;;;;;;;;;;;16.75;47.14;99971.75;5012326;28;1169;-59
2023/03/28 12:19:53;;;;;;;;;;;;;;;17.47;46.99;99974.63;5012733;28;1595;-59
2023/03/28 12:22:25;;;;;;;;;;;;;;;17.12;47.18;99985.06;4996791;28;1985;-60
2023/03/28 12:24:57;;;;;;;;;;;;;;;16.65;47.37;99985.63;4998108;28;1199;-60
2023/03/28 12:27:37;;;;;;;;;;;;;;;16.48;46.38;99990.75;4996054;28;1309;-60
2023/03/28 12:30:29;;;;;;;;;;;;;;;16.58;46.89;99993.41;5011821;28;1229;-58
2023/03/28 12:33:22;;;;;;;;;;;;;;;17.26;46.84;99984.03;5002741;28;1579;-60
2023/03/28 12:36:16;;;;;;;;;;;;;;;16.56;46.97;100006.59;4993359;28;1267;-58
2023/03/28 12:38:48;;;;;;;;;;;;;;;17.56;46.62;100016.84;4978421;28;1446;-55
2023/03/28 12:41:28;;;;;;;;;;;;;;;16.66;47.55;100016.63;4997014;28;1914;-62
2023/03/28 12:43:54;;;;;;;;;;;;;;;16.40;46.67;100015.00;5028692;28;1245;-59
2023/03/28 12:46:26;;;;;;;;;;;;;;;17.37;46.70;100025.88;5028955;28;1421;-61
2023/03/28 12:48:58;;;;;;;;;;;;;;;16.65;47.44;100025.97;4996190;28;1173;-60
2023/03/28 12:51:29;;;;;;;;;;;;;;;17.84;46.08;100033.41;4983054;28;1493;-59
2023/03/28 12:54:04;;;;;;;;;;;;;;;17.79;46.22;100042.59;4984346;28;1337;-59
2023/03/28 12:56:29;;;;;;;;;;;;;;;16.85;47.28;100053.19;4995373;28;1211;-56
2023/03/28 12:58:55;;;;;;;;;;;;;;;18.06;46.19;100052.91;5003319;28;1292;-58
2023/03/28 13:01:41;;;;;;;;;;;;;;;17.07;47.10;100060.91;5019299;28;1957;-57
2023/03/28 13:04:47;;;;;;;;;;;;;;;18.01;46.39;100065.94;4973364;28;1431;-52
2023/03/28 13:07:28;;;;;;;;;;;;;;;17.28;47.17;100066.16;4995880;28;1320;-50
2023/03/28 13:09:54;;;;;;;;;;;;;;;16.70;46.88;100062.41;4995672;28;999;-61
2023/03/28 13:12:34;;;;;;;;;;;;;;;16.76;47.32;100058.50;4996795;28;1044;-52
2023/03/28 13:15:22;;;;;;;;;;;;;;;16.86;47.72;100056.78;5014532;28;1159;-57
2023/03/28 13:18:08;;;;;;;;;;;;;;;16.62;46.83;100057.59;4987404;28;1100;-63
2023/03/28 13:20:33;;;;;;;;;;;;;;;16.36;46.00;100057.84;4993275;28;1934;-55
2023/03/28 13:23:03;;;;;;;;;;;;;;;16.33;45.37;100061.16;4997080;28;1111;-53
2023/03/28 13:25:31;;;;;;;;;;;;;;;17.68;46.03;100069.41;5026341;28;1254;-52
2023/03/28 13:28:11;;;;;;;;;;;;;;;16.67;47.23;100067.69;4997671;28;1156;-53